createdAt,value
2023-02-19T00:02:03.122Z,0.50
2023-02-19T00:04:31.607Z,0.40
2023-02-19T00:07:00.093Z,1.40
2023-02-19T00:09:28.806Z,0.80
2023-02-19T00:11:57.391Z,0.45
2023-02-19T00:14:25.900Z,0.90
2023-02-19T00:16:55.854Z,0.52
2023-02-19T00:19:24.380Z,0.50
2023-02-19T00:21:53.637Z,0.40
2023-02-19T00:24:23.023Z,0.30
2023-02-19T00:26:51.697Z,0.40
2023-02-19T00:29:22.573Z,2.60
2023-02-19T00:31:51.338Z,1.48
2023-02-19T00:34:21.727Z,0.68
2023-02-19T00:36:50.331Z,2.40
2023-02-19T00:39:19.011Z,1.90
2023-02-19T00:41:47.857Z,1.30
2023-02-19T00:44:16.941Z,0.50
2023-02-19T00:46:47.602Z,1.50
2023-02-19T00:49:19.155Z,0.52
2023-02-19T00:51:49.792Z,0.93
2023-02-19T00:54:18.890Z,1.55
2023-02-19T00:56:47.639Z,0.80
2023-02-19T00:59:16.397Z,1.38
2023-02-19T01:01:45.719Z,1.17
2023-02-19T01:04:16.351Z,1.67
2023-02-19T01:06:45.052Z,1.70
2023-02-19T01:09:14.955Z,2.67
2023-02-19T01:11:43.459Z,2.30
2023-02-19T01:14:12.425Z,2.75
2023-02-19T01:16:41.282Z,2.83
2023-02-19T01:19:09.940Z,2.40
2023-02-19T01:21:38.526Z,2.75
2023-02-19T01:24:07.512Z,3.70
2023-02-19T01:26:37.424Z,3.03
2023-02-19T01:29:06.015Z,3.85
2023-02-19T01:31:36.569Z,4.03
2023-02-19T01:34:06.393Z,3.33
2023-02-19T01:36:36.743Z,3.35
2023-02-19T01:39:07.242Z,3.42
2023-02-19T01:41:40.305Z,2.78
2023-02-19T01:44:25.517Z,2.92
2023-02-19T01:46:57.513Z,2.97
2023-02-19T01:49:28.931Z,2.85
2023-02-19T01:52:01.419Z,1.48
2023-02-19T01:54:32.573Z,1.27
2023-02-19T01:57:06.591Z,1.48
2023-02-19T01:59:35.705Z,1.20
2023-02-19T02:02:04.555Z,1.25
2023-02-19T02:04:33.982Z,1.35
2023-02-19T02:07:25.665Z,1.60
2023-02-19T02:10:12.828Z,1.13
2023-02-19T02:12:42.766Z,0.90
2023-02-19T02:15:11.380Z,1.45
2023-02-19T02:17:51.199Z,0.65
2023-02-19T02:20:35.731Z,1.42
2023-02-19T02:23:14.987Z,0.85
2023-02-19T02:26:02.138Z,0.95
2023-02-19T02:28:59.880Z,0.75
2023-02-19T02:31:35.053Z,0.80
2023-02-19T02:34:10.667Z,1.50
2023-02-19T02:36:42.450Z,1.42
2023-02-19T02:39:18.158Z,1.48
2023-02-19T02:42:10.850Z,2.45
2023-02-19T02:44:41.691Z,1.25
2023-02-19T02:47:32.315Z,1.35
2023-02-19T02:50:07.662Z,2.47
2023-02-19T02:53:01.109Z,2.03
2023-02-19T02:55:34.067Z,2.17
2023-02-19T02:58:03.533Z,1.60
2023-02-19T03:00:58.851Z,3.03
2023-02-19T03:03:30.294Z,1.90
2023-02-19T03:06:02.986Z,2.20
2023-02-19T03:08:35.334Z,2.13
2023-02-19T03:11:21.069Z,2.70
2023-02-19T03:14:11.146Z,4.75
2023-02-19T03:17:01.466Z,3.22
2023-02-19T03:19:36.045Z,3.65
2023-02-19T03:22:10.791Z,4.43
2023-02-19T03:25:01.661Z,5.25
2023-02-19T03:27:33.015Z,4.35
2023-02-19T03:30:06.007Z,4.70
2023-02-19T03:32:40.939Z,5.88
2023-02-19T03:35:15.630Z,5.53
2023-02-19T03:37:48.593Z,6.78
2023-02-19T03:40:18.261Z,5.93
2023-02-19T03:42:55.814Z,8.65
2023-02-19T03:45:39.419Z,7.72
2023-02-19T03:48:19.406Z,5.28
2023-02-19T03:50:53.215Z,8.27
2023-02-19T03:53:29.475Z,7.10
2023-02-19T03:56:09.086Z,6.22
2023-02-19T03:58:50.047Z,6.25
2023-02-19T04:01:24.696Z,6.80
2023-02-19T04:03:57.960Z,9.02
2023-02-19T04:06:32.471Z,6.90
2023-02-19T04:09:05.204Z,12.15
2023-02-19T04:11:34.965Z,8.10
2023-02-19T04:14:11.214Z,8.18
2023-02-19T04:16:44.690Z,7.95
2023-02-19T04:19:16.749Z,8.02
2023-02-19T04:21:48.084Z,10.48
2023-02-19T04:24:22.999Z,9.07
2023-02-19T04:26:51.873Z,8.80
2023-02-19T04:29:20.355Z,12.82
2023-02-19T04:31:49.267Z,11.23
2023-02-19T04:34:17.758Z,8.07
2023-02-19T04:36:47.780Z,10.93
2023-02-19T04:39:16.376Z,9.35
2023-02-19T04:41:44.964Z,10.98
2023-02-19T04:44:13.531Z,12.55
2023-02-19T04:46:43.184Z,8.93
2023-02-19T04:49:11.855Z,12.18
2023-02-19T04:51:41.027Z,7.78
2023-02-19T04:54:10.964Z,9.57
2023-02-19T04:56:40.433Z,8.98
2023-02-19T04:59:09.018Z,10.95
2023-02-19T05:01:37.635Z,10.95
2023-02-19T05:04:06.348Z,7.28
2023-02-19T05:06:34.997Z,14.90
2023-02-19T05:09:04.129Z,9.80
2023-02-19T05:11:34.180Z,13.02
2023-02-19T05:14:02.800Z,12.15
2023-02-19T05:16:31.471Z,9.02
2023-02-19T05:19:00.305Z,8.68
2023-02-19T05:21:28.973Z,13.30
2023-02-19T05:23:57.434Z,8.45
2023-02-19T05:26:26.694Z,11.48
2023-02-19T05:28:56.596Z,8.55
2023-02-19T05:31:25.543Z,10.93
2023-02-19T05:33:56.228Z,10.75
2023-02-19T05:36:25.234Z,8.40
2023-02-19T05:38:55.427Z,14.63
2023-02-19T05:41:25.970Z,10.57
2023-02-19T05:43:57.016Z,7.38
2023-02-19T05:46:27.478Z,10.02
2023-02-19T05:48:56.281Z,11.68
2023-02-19T05:51:26.357Z,13.50
2023-02-19T05:53:56.724Z,12.13
2023-02-19T05:56:32.866Z,11.15
2023-02-19T05:59:06.464Z,11.13
2023-02-19T06:01:36.408Z,10.25
2023-02-19T06:04:05.203Z,13.25
2023-02-19T06:06:33.996Z,11.40
2023-02-19T06:09:02.627Z,11.10
2023-02-19T06:11:31.507Z,14.55
2023-02-19T06:14:00.323Z,11.70
2023-02-19T06:16:32.178Z,13.48
2023-02-19T06:19:02.605Z,12.35
2023-02-19T06:21:31.215Z,14.98
2023-02-19T06:23:59.846Z,15.60
2023-02-19T06:26:28.378Z,14.40
2023-02-19T06:28:56.865Z,12.10
2023-02-19T06:31:25.976Z,15.88
2023-02-19T06:33:56.130Z,10.27
2023-02-19T06:36:25.129Z,13.70
2023-02-19T06:38:53.891Z,15.80
2023-02-19T06:41:22.388Z,11.80
2023-02-19T06:43:50.978Z,13.98
2023-02-19T06:46:19.758Z,15.40
2023-02-19T06:48:48.334Z,13.80
2023-02-19T06:51:23.679Z,15.43
2023-02-19T06:53:52.230Z,14.95
2023-02-19T06:56:26.468Z,18.83
2023-02-19T06:58:57.490Z,11.68
2023-02-19T07:01:26.307Z,16.88
2023-02-19T07:03:54.911Z,13.65
2023-02-19T07:06:26.433Z,13.60
2023-02-19T07:08:56.993Z,15.02
2023-02-19T07:11:26.171Z,13.85
2023-02-19T07:13:56.865Z,10.43
2023-02-19T07:16:26.217Z,15.52
2023-02-19T07:18:56.858Z,11.73
2023-02-19T07:21:28.155Z,15.77
2023-02-19T07:23:57.041Z,11.52
2023-02-19T07:26:26.013Z,12.63
2023-02-19T07:28:54.553Z,17.73
2023-02-19T07:31:25.123Z,15.40
2023-02-19T07:33:54.083Z,12.25
2023-02-19T07:36:24.031Z,13.18
2023-02-19T07:38:58.437Z,16.05
2023-02-19T07:41:28.606Z,13.55
2023-02-19T07:43:59.819Z,14.23
2023-02-19T07:46:29.917Z,11.98
2023-02-19T07:48:58.728Z,16.35
2023-02-19T07:51:27.287Z,13.23
2023-02-19T07:53:57.116Z,18.20
2023-02-19T07:56:25.676Z,17.38
2023-02-19T07:58:54.275Z,20.10
2023-02-19T08:01:45.080Z,16.70
2023-02-19T08:04:14.266Z,14.23
2023-02-19T08:06:43.718Z,14.88
2023-02-19T08:09:14.279Z,15.45
2023-02-19T08:12:00.458Z,14.80
2023-02-19T08:14:29.438Z,12.77
2023-02-19T08:16:58.087Z,12.93
2023-02-19T08:19:26.768Z,14.90
2023-02-19T08:21:55.350Z,15.52
2023-02-19T08:24:25.271Z,12.85
2023-02-19T08:26:53.942Z,11.63
2023-02-19T08:29:22.420Z,10.70
2023-02-19T08:31:51.104Z,13.27
2023-02-19T08:34:19.721Z,15.10
2023-02-19T08:36:48.198Z,15.20
2023-02-19T08:39:17.130Z,16.50
2023-02-19T08:41:48.157Z,14.98
2023-02-19T08:44:16.702Z,13.55
2023-02-19T08:46:45.278Z,15.30
2023-02-19T08:49:13.914Z,17.13
2023-02-19T08:51:42.456Z,14.57
2023-02-19T08:54:11.135Z,13.75
2023-02-19T08:56:39.694Z,14.13
2023-02-19T08:59:09.502Z,16.38
2023-02-19T09:01:38.073Z,17.83
2023-02-19T09:04:06.656Z,15.70
2023-02-19T09:06:35.720Z,13.80
2023-02-19T09:09:04.452Z,13.90
2023-02-19T09:11:33.027Z,14.93
2023-02-19T09:14:02.178Z,21.45
2023-02-19T09:16:32.036Z,11.25
2023-02-19T09:19:00.666Z,16.27
2023-02-19T09:21:29.242Z,12.20
2023-02-19T09:23:57.962Z,13.23
2023-02-19T09:26:26.505Z,14.10
2023-02-19T09:28:56.004Z,17.23
2023-02-19T09:31:24.633Z,17.63
2023-02-19T09:33:54.785Z,11.55
2023-02-19T09:36:23.316Z,16.10
2023-02-19T09:38:51.796Z,13.13
2023-02-19T09:41:26.628Z,14.38
2023-02-19T09:43:55.677Z,13.38
2023-02-19T09:46:29.980Z,16.55
2023-02-19T09:49:05.623Z,20.92
2023-02-19T09:51:37.765Z,15.25
2023-02-19T09:54:13.842Z,13.68
2023-02-19T09:56:42.533Z,14.93
2023-02-19T09:59:20.524Z,13.77
2023-02-19T10:01:54.857Z,12.90
2023-02-19T10:04:24.896Z,15.52
2023-02-19T10:06:58.944Z,15.35
2023-02-19T10:09:31.079Z,17.98
2023-02-19T10:12:00.908Z,15.57
2023-02-19T10:14:35.637Z,14.57
2023-02-19T10:17:06.911Z,11.93
2023-02-19T10:19:37.694Z,15.13
2023-02-19T10:22:06.462Z,15.63
2023-02-19T10:24:37.535Z,15.90
2023-02-19T10:27:11.397Z,14.65
2023-02-19T10:29:40.041Z,12.15
2023-02-19T10:32:21.547Z,12.05
2023-02-19T10:35:09.629Z,11.07
2023-02-19T10:37:43.998Z,14.60
2023-02-19T10:40:18.789Z,15.77
2023-02-19T10:42:49.196Z,9.80
2023-02-19T10:45:20.550Z,10.75
2023-02-19T10:47:50.175Z,10.18
2023-02-19T10:50:27.136Z,10.20
2023-02-19T10:52:58.083Z,8.35
2023-02-19T10:55:30.226Z,7.10
2023-02-19T10:57:59.383Z,9.68
2023-02-19T11:00:30.487Z,6.72
2023-02-19T11:03:15.329Z,7.38
2023-02-19T11:05:57.959Z,11.07
2023-02-19T11:08:26.704Z,6.38
2023-02-19T11:10:55.364Z,6.75
2023-02-19T11:13:32.248Z,9.52
2023-02-19T11:16:01.935Z,9.13
2023-02-19T11:18:32.957Z,7.95
2023-02-19T11:21:05.611Z,7.40
2023-02-19T11:23:38.150Z,10.45
2023-02-19T11:26:17.058Z,10.85
2023-02-19T11:28:45.983Z,7.20
2023-02-19T11:31:23.402Z,7.30
2023-02-19T11:33:57.202Z,6.72
2023-02-19T11:36:33.963Z,8.02
2023-02-19T11:39:21.183Z,5.18
2023-02-19T11:42:13.419Z,7.32
2023-02-19T11:44:55.117Z,7.47
2023-02-19T11:47:44.187Z,8.68
2023-02-19T11:50:22.171Z,8.68
2023-02-19T11:53:05.579Z,5.82
2023-02-19T11:55:50.830Z,10.82
2023-02-19T11:58:47.913Z,7.25
2023-02-19T12:01:24.351Z,7.30
2023-02-19T12:04:15.957Z,9.30
2023-02-19T12:06:55.543Z,8.00
2023-02-19T12:09:35.484Z,6.50
2023-02-19T12:12:21.665Z,6.93
2023-02-19T12:15:11.280Z,6.03
2023-02-19T12:17:58.069Z,6.15
2023-02-19T12:20:33.662Z,8.10
2023-02-19T12:23:25.940Z,5.78
2023-02-19T12:26:03.511Z,6.68
2023-02-19T12:28:45.487Z,7.40
2023-02-19T12:31:35.084Z,5.15
2023-02-19T12:34:22.131Z,8.05
2023-02-19T12:37:02.019Z,6.28
2023-02-19T12:39:43.189Z,6.13
2023-02-19T12:42:23.012Z,10.73
2023-02-19T12:44:57.649Z,6.97
2023-02-19T12:47:33.205Z,7.78
2023-02-19T12:50:09.336Z,9.45
2023-02-19T12:52:40.939Z,8.80
2023-02-19T12:55:22.343Z,7.05
2023-02-19T12:57:54.030Z,5.95
2023-02-19T13:00:31.548Z,6.53
2023-02-19T13:03:03.931Z,5.50
2023-02-19T13:05:43.241Z,9.80
2023-02-19T13:08:21.356Z,6.95
2023-02-19T13:10:55.914Z,5.30
2023-02-19T13:13:31.004Z,9.80
2023-02-19T13:16:04.135Z,6.57
2023-02-19T13:18:38.015Z,6.78
2023-02-19T13:21:07.274Z,6.75
2023-02-19T13:23:57.772Z,5.22
2023-02-19T13:26:55.397Z,4.97
2023-02-19T13:29:39.482Z,5.70
2023-02-19T13:32:22.909Z,7.10
2023-02-19T13:35:13.100Z,4.25
2023-02-19T13:37:42.173Z,5.55
2023-02-19T13:40:23.687Z,5.43
2023-02-19T13:42:57.340Z,3.95
2023-02-19T13:45:34.215Z,4.68
2023-02-19T13:48:16.501Z,5.40
2023-02-19T13:50:45.163Z,4.90
2023-02-19T13:53:51.775Z,5.70
2023-02-19T13:56:40.179Z,7.60
2023-02-19T13:59:36.895Z,4.38
2023-02-19T14:02:29.304Z,5.40
2023-02-19T14:05:01.068Z,7.03
2023-02-19T14:08:02.150Z,5.50
2023-02-19T14:11:01.966Z,7.25
2023-02-19T14:13:59.436Z,7.40
2023-02-19T14:16:33.351Z,5.95
2023-02-19T14:19:02.206Z,5.40
2023-02-19T14:21:39.037Z,7.45
2023-02-19T14:24:12.316Z,8.98
2023-02-19T14:26:41.739Z,7.28
2023-02-19T14:29:14.984Z,4.97
2023-02-19T14:31:46.587Z,7.07
2023-02-19T14:34:22.288Z,8.75
2023-02-19T14:36:55.034Z,9.98
2023-02-19T14:39:27.142Z,7.25
2023-02-19T14:41:59.275Z,8.30
2023-02-19T14:44:31.077Z,7.93
2023-02-19T14:47:04.414Z,9.23
2023-02-19T14:49:42.464Z,8.88
2023-02-19T14:52:18.777Z,6.35
2023-02-19T14:54:52.228Z,7.65
2023-02-19T14:57:23.495Z,7.38
2023-02-19T14:59:58.259Z,5.30
2023-02-19T15:02:28.107Z,6.68
2023-02-19T15:04:56.980Z,5.32
2023-02-19T15:07:31.162Z,6.05
2023-02-19T15:10:05.441Z,6.13
2023-02-19T15:12:36.867Z,7.10
2023-02-19T15:15:06.955Z,6.70
2023-02-19T15:17:39.206Z,6.20
2023-02-19T15:20:12.927Z,9.07
2023-02-19T15:22:43.082Z,8.02
2023-02-19T15:25:18.838Z,6.38
2023-02-19T15:27:47.692Z,8.05
2023-02-19T15:30:24.712Z,7.57
2023-02-19T15:32:55.117Z,9.80
2023-02-19T15:35:25.166Z,6.50
2023-02-19T15:37:56.483Z,7.10
2023-02-19T15:40:32.354Z,6.95
2023-02-19T15:43:02.086Z,7.50
2023-02-19T15:45:34.965Z,10.00
2023-02-19T15:48:07.421Z,7.50
2023-02-19T15:50:39.996Z,7.80
2023-02-19T15:53:15.541Z,10.23
2023-02-19T15:55:46.741Z,11.35
2023-02-19T15:58:22.142Z,8.75
2023-02-19T16:00:55.014Z,9.25
2023-02-19T16:03:25.851Z,8.68
2023-02-19T16:06:01.925Z,8.02
2023-02-19T16:08:34.131Z,9.02
2023-02-19T16:11:05.207Z,10.15
2023-02-19T16:13:36.134Z,13.65
2023-02-19T16:16:15.319Z,10.55
2023-02-19T16:18:46.452Z,10.30
2023-02-19T16:21:17.758Z,10.32
2023-02-19T16:23:50.568Z,11.02
2023-02-19T16:26:19.496Z,7.53
2023-02-19T16:28:52.389Z,7.32
2023-02-19T16:31:23.938Z,6.22
2023-02-19T16:33:52.562Z,8.32
2023-02-19T16:36:35.094Z,7.25
2023-02-19T16:39:23.571Z,8.25
2023-02-19T16:42:19.799Z,9.25
2023-02-19T16:44:49.024Z,8.38
2023-02-19T16:47:41.545Z,9.00
2023-02-19T16:50:15.597Z,9.88
2023-02-19T16:52:53.230Z,9.18
2023-02-19T16:55:23.861Z,8.05
2023-02-19T16:57:53.022Z,12.23
2023-02-19T17:00:23.855Z,11.30
2023-02-19T17:02:54.767Z,6.93
2023-02-19T17:05:24.938Z,9.93
2023-02-19T17:07:53.539Z,7.22
2023-02-19T17:10:25.520Z,7.07
2023-02-19T17:12:56.068Z,7.68
2023-02-19T17:15:24.655Z,9.23
2023-02-19T17:17:53.156Z,8.15
2023-02-19T17:20:27.421Z,8.55
2023-02-19T17:22:56.249Z,11.50
2023-02-19T17:25:26.254Z,7.00
2023-02-19T17:27:54.886Z,7.82
2023-02-19T17:30:27.883Z,8.23
2023-02-19T17:32:57.307Z,9.35
2023-02-19T17:35:44.937Z,9.35
2023-02-19T17:38:14.296Z,7.80
2023-02-19T17:40:45.217Z,8.18
2023-02-19T17:43:14.591Z,11.48
2023-02-19T17:45:43.211Z,8.18
2023-02-19T17:48:14.048Z,10.95
2023-02-19T17:50:43.125Z,10.05
2023-02-19T17:53:11.799Z,11.32
2023-02-19T17:55:40.336Z,8.48
2023-02-19T17:58:10.210Z,10.05
2023-02-19T18:00:38.872Z,10.45
2023-02-19T18:03:08.530Z,11.15
2023-02-19T18:05:37.099Z,13.68
2023-02-19T18:08:05.579Z,8.75
2023-02-19T18:10:34.110Z,11.70
2023-02-19T18:13:02.909Z,11.35
2023-02-19T18:15:33.403Z,14.23
2023-02-19T18:18:02.278Z,11.77
2023-02-19T18:20:31.509Z,10.43
2023-02-19T18:23:00.155Z,10.48
2023-02-19T18:25:28.759Z,12.38
2023-02-19T18:27:57.365Z,12.73
2023-02-19T18:30:26.149Z,10.48
2023-02-19T18:32:56.060Z,12.65
2023-02-19T18:35:24.651Z,10.05
2023-02-19T18:37:54.123Z,11.32
2023-02-19T18:40:25.240Z,14.55
2023-02-19T18:42:54.183Z,10.63
2023-02-19T18:45:22.966Z,10.85
2023-02-19T18:47:51.700Z,10.32
2023-02-19T18:50:21.823Z,10.60
2023-02-19T18:52:50.425Z,12.32
2023-02-19T18:55:19.390Z,10.93
2023-02-19T18:57:48.876Z,9.43
2023-02-19T19:00:19.450Z,11.57
2023-02-19T19:02:51.309Z,10.57
2023-02-19T19:05:23.216Z,10.68
2023-02-19T19:07:52.570Z,12.50
2023-02-19T19:10:21.846Z,11.65
2023-02-19T19:12:50.483Z,12.85
2023-02-19T19:15:19.486Z,9.70
2023-02-19T19:17:48.600Z,9.77
2023-02-19T19:20:18.672Z,11.43
2023-02-19T19:22:50.419Z,9.52
2023-02-19T19:25:19.130Z,10.90
2023-02-19T19:27:50.346Z,8.35
2023-02-19T19:30:20.013Z,9.80
2023-02-19T19:32:49.362Z,9.00
2023-02-19T19:35:19.188Z,11.32
2023-02-19T19:37:49.296Z,8.82
2023-02-19T19:40:18.826Z,9.45
2023-02-19T19:42:47.811Z,8.18
2023-02-19T19:45:16.955Z,12.90
2023-02-19T19:47:45.600Z,9.63
2023-02-19T19:50:14.439Z,8.98
2023-02-19T19:52:43.261Z,8.40
2023-02-19T19:55:13.210Z,10.98
2023-02-19T19:57:42.854Z,10.75
2023-02-19T20:00:16.111Z,9.18
2023-02-19T20:02:44.843Z,8.07
2023-02-19T20:05:14.352Z,8.50
2023-02-19T20:07:43.315Z,9.48
2023-02-19T20:10:15.968Z,8.23
2023-02-19T20:12:46.330Z,7.85
2023-02-19T20:15:21.701Z,7.43
2023-02-19T20:17:50.786Z,9.18
2023-02-19T20:20:19.870Z,7.85
2023-02-19T20:22:48.386Z,8.73
2023-02-19T20:25:18.508Z,7.97
2023-02-19T20:27:48.773Z,8.43
2023-02-19T20:30:17.994Z,7.53
2023-02-19T20:32:46.720Z,7.53
2023-02-19T20:35:16.825Z,10.13
2023-02-19T20:37:47.846Z,7.60
2023-02-19T20:40:19.778Z,7.40
2023-02-19T20:42:48.478Z,8.23
2023-02-19T20:45:17.684Z,7.15
2023-02-19T20:47:46.183Z,7.45
2023-02-19T20:50:16.860Z,8.63
2023-02-19T20:52:45.929Z,7.20
2023-02-19T20:55:14.467Z,8.80
2023-02-19T20:57:44.506Z,8.82
2023-02-19T21:00:15.526Z,8.20
2023-02-19T21:02:44.945Z,7.05
2023-02-19T21:05:13.594Z,8.05
2023-02-19T21:07:42.188Z,8.80
2023-02-19T21:10:11.449Z,8.23
2023-02-19T21:12:40.671Z,11.27
2023-02-19T21:15:11.014Z,9.95
2023-02-19T21:17:39.671Z,6.88
2023-02-19T21:20:09.539Z,9.63
2023-02-19T21:22:38.114Z,11.32
2023-02-19T21:25:07.550Z,7.45
2023-02-19T21:27:36.075Z,10.02
2023-02-19T21:30:05.260Z,8.45
2023-02-19T21:32:35.648Z,8.15
2023-02-19T21:35:04.369Z,10.20
2023-02-19T21:37:32.948Z,8.63
2023-02-19T21:40:01.516Z,10.50
2023-02-19T21:42:30.015Z,10.25
2023-02-19T21:44:58.593Z,8.35
2023-02-19T21:47:27.711Z,9.07
2023-02-19T21:49:57.550Z,8.90
2023-02-19T21:52:26.932Z,9.27
2023-02-19T21:54:55.546Z,10.25
2023-02-19T21:57:24.560Z,11.25
2023-02-19T21:59:53.395Z,10.10
2023-02-19T22:02:22.362Z,10.65
2023-02-19T22:04:54.531Z,11.05
2023-02-19T22:07:25.200Z,10.10
2023-02-19T22:09:53.938Z,11.27
2023-02-19T22:12:22.461Z,9.93
2023-02-19T22:14:51.663Z,9.88
2023-02-19T22:17:20.704Z,10.80
2023-02-19T22:19:49.288Z,10.80
2023-02-19T22:22:17.857Z,12.93
2023-02-19T22:24:47.770Z,12.20
2023-02-19T22:27:16.342Z,10.27
2023-02-19T22:29:44.898Z,11.85
2023-02-19T22:32:13.640Z,8.88
2023-02-19T22:34:42.282Z,10.60
2023-02-19T22:37:10.929Z,9.05
2023-02-19T22:39:39.541Z,8.68
2023-02-19T22:42:09.393Z,12.02
2023-02-19T22:44:38.285Z,9.30
2023-02-19T22:47:06.809Z,9.25
2023-02-19T22:49:38.321Z,10.07
2023-02-19T22:52:09.479Z,10.68
2023-02-19T22:54:38.565Z,8.23
2023-02-19T22:57:07.177Z,9.05
2023-02-19T22:59:37.045Z,9.30
2023-02-19T23:02:05.756Z,10.63
2023-02-19T23:04:34.370Z,9.68
2023-02-19T23:07:02.922Z,8.60
2023-02-19T23:09:31.497Z,10.45
2023-02-19T23:12:04.925Z,10.18
2023-02-19T23:14:34.003Z,11.93
2023-02-19T23:17:03.846Z,9.82
2023-02-19T23:19:32.634Z,9.98
2023-02-19T23:22:01.666Z,10.98
2023-02-19T23:24:30.231Z,9.45
2023-02-19T23:26:59.618Z,9.43
2023-02-19T23:29:30.424Z,13.15
2023-02-19T23:32:00.288Z,9.80
2023-02-19T23:34:30.217Z,10.40
2023-02-19T23:36:59.561Z,10.85
2023-02-19T23:39:28.177Z,10.07
2023-02-19T23:41:58.167Z,11.85
2023-02-19T23:44:27.073Z,11.23
2023-02-19T23:46:55.552Z,11.65
2023-02-19T23:49:24.315Z,11.07
2023-02-19T23:51:54.128Z,11.98
2023-02-19T23:54:22.652Z,9.20
2023-02-19T23:56:51.118Z,12.05
2023-02-19T23:59:19.672Z,9.60
